createdAt,value
2019-05-09T00:00:33.521Z,0.00
2019-05-09T00:01:33.542Z,0.00
2019-05-09T00:02:33.663Z,0.00
2019-05-09T00:03:33.526Z,0.00
2019-05-09T00:04:33.518Z,0.00
2019-05-09T00:05:33.529Z,0.00
2019-05-09T00:06:33.965Z,0.00
2019-05-09T00:07:33.721Z,0.00
2019-05-09T00:08:33.519Z,0.00
2019-05-09T00:09:33.546Z,0.00
2019-05-09T00:10:39.503Z,0.00
2019-05-09T00:11:33.581Z,0.00
2019-05-09T00:12:33.585Z,0.00
2019-05-09T00:13:34.086Z,0.00
2019-05-09T00:14:34.230Z,0.00
2019-05-09T00:15:33.247Z,0.00
2019-05-09T00:16:33.522Z,0.00
2019-05-09T00:17:33.739Z,0.00
2019-05-09T00:18:33.668Z,0.00
2019-05-09T00:19:33.404Z,0.00
2019-05-09T00:20:33.192Z,0.00
2019-05-09T00:21:33.284Z,0.00
2019-05-09T00:22:33.277Z,0.00
2019-05-09T00:23:33.231Z,0.00
2019-05-09T00:24:33.191Z,0.00
2019-05-09T00:25:33.985Z,0.00
2019-05-09T00:26:33.937Z,0.00
2019-05-09T00:27:33.224Z,0.00
2019-05-09T00:28:35.754Z,0.00
2019-05-09T00:29:33.461Z,0.00
2019-05-09T00:30:33.219Z,0.00
2019-05-09T00:31:33.829Z,0.00
2019-05-09T00:32:34.113Z,0.00
2019-05-09T00:33:34.287Z,0.00
2019-05-09T00:34:33.814Z,0.00
2019-05-09T00:35:33.789Z,0.00
2019-05-09T00:36:33.481Z,0.00
2019-05-09T00:37:33.084Z,0.00
2019-05-09T00:38:33.333Z,0.00
2019-05-09T00:39:34.076Z,0.00
2019-05-09T00:40:34.174Z,0.00
2019-05-09T00:41:33.310Z,0.00
2019-05-09T00:42:33.403Z,0.00
2019-05-09T00:43:34.240Z,0.00
2019-05-09T00:44:33.874Z,0.00
2019-05-09T00:45:33.416Z,0.00
2019-05-09T00:46:34.067Z,0.00
2019-05-09T00:47:33.034Z,0.00
2019-05-09T00:48:33.715Z,0.00
2019-05-09T00:49:34.162Z,0.00
2019-05-09T00:50:34.143Z,0.00
2019-05-09T00:51:33.878Z,0.00
2019-05-09T00:52:33.911Z,0.00
2019-05-09T00:53:33.967Z,0.00
2019-05-09T00:54:33.515Z,0.00
2019-05-09T00:55:33.373Z,0.00
2019-05-09T00:56:33.239Z,0.00
2019-05-09T00:57:33.499Z,0.00
2019-05-09T00:58:33.555Z,0.00
2019-05-09T00:59:33.349Z,0.00
2019-05-09T01:00:33.391Z,0.00
2019-05-09T01:01:34.187Z,0.00
2019-05-09T01:02:34.048Z,0.00
2019-05-09T01:03:34.003Z,0.00
2019-05-09T01:04:33.440Z,0.00
2019-05-09T01:05:34.137Z,0.00
2019-05-09T01:06:34.035Z,0.00
2019-05-09T01:07:33.644Z,0.00
2019-05-09T01:08:33.670Z,0.00
2019-05-09T01:09:33.499Z,0.00
2019-05-09T01:10:34.272Z,0.00
2019-05-09T01:11:33.365Z,0.00
2019-05-09T01:12:34.095Z,0.00
2019-05-09T01:13:34.175Z,0.00
2019-05-09T01:14:33.991Z,0.00
2019-05-09T01:15:33.560Z,0.00
2019-05-09T01:16:33.617Z,0.00
2019-05-09T01:17:33.619Z,0.00
2019-05-09T01:18:33.217Z,0.00
2019-05-09T01:19:33.829Z,0.00
2019-05-09T01:20:33.375Z,0.00
2019-05-09T01:21:33.497Z,0.00
2019-05-09T01:22:33.317Z,0.00
2019-05-09T01:23:34.423Z,0.00
2019-05-09T01:24:33.764Z,0.00
2019-05-09T01:25:33.627Z,0.00
2019-05-09T01:26:33.518Z,0.00
2019-05-09T01:27:33.939Z,0.00
2019-05-09T01:28:33.935Z,0.00
2019-05-09T01:29:33.914Z,0.00
2019-05-09T01:30:33.683Z,0.00
2019-05-09T01:31:33.438Z,0.00
2019-05-09T01:32:34.300Z,0.00
2019-05-09T01:33:33.357Z,0.00
2019-05-09T01:34:33.290Z,0.00
2019-05-09T01:35:33.978Z,0.00
2019-05-09T01:36:33.867Z,0.00
2019-05-09T01:37:34.182Z,0.00
2019-05-09T01:38:33.944Z,0.00
2019-05-09T01:39:33.707Z,0.00
2019-05-09T01:40:33.302Z,0.00
2019-05-09T01:41:34.113Z,0.00
2019-05-09T01:42:33.807Z,0.00
2019-05-09T01:43:33.882Z,0.00
2019-05-09T01:44:33.619Z,0.00
2019-05-09T01:45:34.209Z,0.00
2019-05-09T01:46:34.039Z,0.00
2019-05-09T01:47:34.176Z,0.00
2019-05-09T01:48:34.158Z,0.00
2019-05-09T01:49:34.247Z,0.00
2019-05-09T01:50:34.064Z,0.00
2019-05-09T01:51:33.792Z,0.00
2019-05-09T01:52:33.785Z,0.00
2019-05-09T01:53:33.557Z,0.00
2019-05-09T01:54:33.395Z,0.00
2019-05-09T01:55:34.017Z,0.00
2019-05-09T01:56:33.963Z,0.00
2019-05-09T01:57:33.796Z,0.00
2019-05-09T01:58:34.167Z,0.00
2019-05-09T01:59:34.137Z,0.00
2019-05-09T02:00:33.451Z,0.00
2019-05-09T02:01:34.414Z,0.00
2019-05-09T02:02:33.911Z,0.00
2019-05-09T02:03:33.833Z,0.00
2019-05-09T02:04:33.627Z,0.00
2019-05-09T02:05:34.052Z,0.00
2019-05-09T02:06:33.518Z,0.00
2019-05-09T02:07:33.547Z,0.00
2019-05-09T02:08:34.545Z,0.00
2019-05-09T02:09:34.179Z,0.00
2019-05-09T02:10:34.709Z,0.00
2019-05-09T02:11:42.280Z,0.00
2019-05-09T02:12:33.918Z,0.00
2019-05-09T02:13:34.026Z,0.00
2019-05-09T02:14:34.364Z,0.00
2019-05-09T02:15:34.187Z,0.00
2019-05-09T02:16:33.832Z,0.00
2019-05-09T02:17:33.600Z,0.00
2019-05-09T02:18:33.593Z,0.00
2019-05-09T02:19:33.615Z,0.00
2019-05-09T02:20:33.644Z,0.00
2019-05-09T02:21:34.545Z,0.00
2019-05-09T02:22:34.570Z,0.00
2019-05-09T02:23:33.990Z,0.00
2019-05-09T02:24:33.829Z,0.00
2019-05-09T02:25:33.661Z,0.00
2019-05-09T02:26:33.716Z,0.00
2019-05-09T02:27:33.668Z,0.00
2019-05-09T02:28:34.252Z,0.00
2019-05-09T02:29:33.851Z,0.00
2019-05-09T02:30:36.088Z,0.00
2019-05-09T02:31:35.375Z,0.00
2019-05-09T02:32:34.671Z,0.00
2019-05-09T02:33:34.740Z,0.00
2019-05-09T02:34:35.595Z,0.00
2019-05-09T02:35:41.546Z,0.00
2019-05-09T02:36:33.766Z,0.00
2019-05-09T02:37:33.773Z,0.00
2019-05-09T02:38:33.774Z,0.00
2019-05-09T02:39:33.825Z,0.00
2019-05-09T02:40:33.779Z,0.00
2019-05-09T02:41:33.793Z,0.00
2019-05-09T02:42:33.786Z,0.00
2019-05-09T02:43:33.817Z,0.00
2019-05-09T02:44:33.815Z,0.00
2019-05-09T02:45:33.816Z,0.00
2019-05-09T02:46:33.838Z,0.00
2019-05-09T02:47:33.827Z,0.00
2019-05-09T02:48:33.862Z,0.00
2019-05-09T02:49:33.855Z,0.00
2019-05-09T02:50:33.857Z,0.00
2019-05-09T02:51:33.876Z,0.00
2019-05-09T02:52:33.920Z,0.00
2019-05-09T02:53:33.932Z,0.00
2019-05-09T02:54:33.928Z,0.00
2019-05-09T02:55:33.891Z,0.00
2019-05-09T02:56:33.920Z,0.00
2019-05-09T02:57:34.012Z,0.00
2019-05-09T02:58:34.033Z,0.00
2019-05-09T02:59:33.960Z,0.00
2019-05-09T03:00:33.994Z,0.00
2019-05-09T03:01:33.961Z,0.00
2019-05-09T03:02:33.988Z,0.00
2019-05-09T03:03:33.967Z,0.00
2019-05-09T03:04:33.995Z,0.00
2019-05-09T03:05:33.973Z,0.00
2019-05-09T03:06:34.010Z,0.00
2019-05-09T03:07:33.990Z,0.00
2019-05-09T03:08:34.008Z,0.00
2019-05-09T03:09:34.008Z,0.00
2019-05-09T03:10:34.029Z,0.00
2019-05-09T03:11:34.047Z,0.00
2019-05-09T03:12:35.715Z,0.00
2019-05-09T03:13:34.066Z,0.00
2019-05-09T03:14:34.054Z,0.00
2019-05-09T03:15:34.056Z,0.00
2019-05-09T03:16:34.108Z,0.00
2019-05-09T03:17:34.079Z,0.00
2019-05-09T03:18:34.115Z,0.00
2019-05-09T03:19:34.101Z,0.00
2019-05-09T03:20:34.093Z,0.00
2019-05-09T03:21:34.124Z,0.00
2019-05-09T03:22:34.136Z,0.00
2019-05-09T03:23:34.277Z,5.63
2019-05-09T03:24:34.155Z,5.63
2019-05-09T03:25:34.129Z,5.63
2019-05-09T03:26:34.177Z,5.63
2019-05-09T03:27:34.159Z,5.63
2019-05-09T03:28:34.162Z,5.63
2019-05-09T03:29:34.181Z,5.63
2019-05-09T03:30:34.186Z,5.63
2019-05-09T03:31:34.187Z,5.63
2019-05-09T03:32:34.237Z,5.63
2019-05-09T03:33:35.743Z,5.63
2019-05-09T03:34:34.204Z,11.25
2019-05-09T03:35:34.307Z,11.25
2019-05-09T03:36:34.222Z,11.25
2019-05-09T03:37:34.273Z,11.25
2019-05-09T03:38:34.278Z,11.25
2019-05-09T03:39:34.245Z,11.25
2019-05-09T03:40:34.325Z,11.25
2019-05-09T03:41:34.253Z,16.88
2019-05-09T03:42:42.585Z,16.88
2019-05-09T03:43:34.312Z,16.88
2019-05-09T03:44:34.327Z,16.88
2019-05-09T03:45:34.281Z,16.88
2019-05-09T03:46:34.287Z,16.88
2019-05-09T03:47:34.344Z,16.88
2019-05-09T03:48:34.322Z,22.50
2019-05-09T03:49:34.399Z,22.50
2019-05-09T03:50:34.371Z,22.50
2019-05-09T03:51:34.327Z,28.13
2019-05-09T03:52:34.334Z,28.13
2019-05-09T03:53:34.427Z,28.13
2019-05-09T03:54:34.355Z,33.75
2019-05-09T03:55:34.398Z,33.75
2019-05-09T03:56:34.380Z,33.75
2019-05-09T03:57:34.375Z,33.75
2019-05-09T03:58:34.402Z,39.38
2019-05-09T03:59:34.424Z,45.00
2019-05-09T04:00:34.450Z,45.00
2019-05-09T04:01:34.416Z,45.00
2019-05-09T04:02:34.526Z,39.38
2019-05-09T04:03:34.441Z,39.38
2019-05-09T04:04:34.459Z,33.75
2019-05-09T04:05:34.444Z,33.75
2019-05-09T04:06:34.503Z,33.75
2019-05-09T04:07:34.458Z,39.38
2019-05-09T04:08:34.462Z,45.00
2019-05-09T04:09:34.493Z,45.00
2019-05-09T04:10:34.511Z,50.63
2019-05-09T04:11:34.488Z,50.63
2019-05-09T04:12:34.548Z,61.88
2019-05-09T04:13:34.513Z,67.50
2019-05-09T04:14:34.531Z,84.38
2019-05-09T04:15:34.565Z,95.63
2019-05-09T04:16:34.557Z,106.88
2019-05-09T04:17:34.567Z,101.25
2019-05-09T04:18:34.551Z,101.25
2019-05-09T04:19:34.595Z,106.88
2019-05-09T04:20:34.562Z,118.13
2019-05-09T04:21:34.560Z,140.63
2019-05-09T04:22:34.643Z,168.75
2019-05-09T04:23:34.683Z,185.63
2019-05-09T04:24:34.610Z,185.63
2019-05-09T04:25:34.629Z,191.25
2019-05-09T04:26:34.623Z,196.88
2019-05-09T04:27:34.650Z,213.75
2019-05-09T04:28:34.669Z,236.25
2019-05-09T04:29:34.638Z,247.50
2019-05-09T04:30:34.651Z,258.75
2019-05-09T04:31:34.675Z,264.38
2019-05-09T04:32:34.725Z,264.38
2019-05-09T04:33:34.687Z,219.38
2019-05-09T04:34:34.671Z,180.00
2019-05-09T04:35:34.688Z,168.75
2019-05-09T04:36:34.717Z,163.13
2019-05-09T04:37:34.689Z,163.13
2019-05-09T04:38:34.724Z,163.13
2019-05-09T04:39:34.718Z,163.13
2019-05-09T04:40:37.822Z,168.75
2019-05-09T04:41:34.748Z,174.38
2019-05-09T04:42:34.998Z,180.00
2019-05-09T04:43:36.853Z,185.63
2019-05-09T04:44:34.784Z,180.00
2019-05-09T04:45:40.219Z,180.00
2019-05-09T04:46:34.781Z,196.88
2019-05-09T04:47:39.376Z,208.13
2019-05-09T04:48:34.791Z,196.88
2019-05-09T04:49:40.974Z,219.38
2019-05-09T04:50:34.806Z,219.38
2019-05-09T04:51:34.809Z,219.38
2019-05-09T04:52:34.837Z,208.13
2019-05-09T04:53:34.855Z,202.50
2019-05-09T04:54:34.896Z,185.63
2019-05-09T04:55:34.859Z,163.13
2019-05-09T04:56:34.867Z,146.25
2019-05-09T04:57:34.871Z,135.00
2019-05-09T04:58:34.891Z,140.63
2019-05-09T04:59:37.240Z,140.63
2019-05-09T05:00:34.901Z,151.88
2019-05-09T05:01:34.965Z,180.00
2019-05-09T05:02:34.935Z,213.75
2019-05-09T05:03:34.935Z,247.50
2019-05-09T05:04:37.283Z,286.88
2019-05-09T05:05:34.991Z,303.75
2019-05-09T05:06:34.972Z,298.13
2019-05-09T05:07:35.027Z,315.00
2019-05-09T05:08:34.974Z,320.63
2019-05-09T05:09:34.997Z,315.00
2019-05-09T05:10:37.239Z,298.13
2019-05-09T05:11:35.051Z,281.25
2019-05-09T05:12:34.993Z,264.38
2019-05-09T05:13:35.004Z,253.13
2019-05-09T05:14:35.024Z,264.38
2019-05-09T05:15:35.050Z,270.00
2019-05-09T05:16:35.104Z,264.38
2019-05-09T05:17:37.624Z,241.88
2019-05-09T05:18:37.282Z,241.88
2019-05-09T05:19:37.670Z,202.50
2019-05-09T05:20:35.059Z,174.38
2019-05-09T05:21:35.117Z,157.50
2019-05-09T05:22:35.108Z,140.63
2019-05-09T05:23:35.135Z,135.00
2019-05-09T05:24:35.142Z,129.38
2019-05-09T05:25:35.154Z,129.38
2019-05-09T05:26:35.127Z,129.38
2019-05-09T05:27:35.154Z,135.00
2019-05-09T05:28:35.331Z,140.63
2019-05-09T05:29:35.252Z,151.88
2019-05-09T05:30:37.256Z,168.75
2019-05-09T05:31:41.753Z,191.25
2019-05-09T05:32:35.193Z,225.00
2019-05-09T05:33:35.215Z,258.75
2019-05-09T05:34:35.228Z,286.88
2019-05-09T05:35:37.417Z,309.38
2019-05-09T05:36:35.221Z,331.88
2019-05-09T05:37:35.212Z,348.75
2019-05-09T05:38:37.559Z,365.63
2019-05-09T05:39:37.446Z,360.00
2019-05-09T05:40:43.645Z,337.50
2019-05-09T05:41:37.683Z,309.38
2019-05-09T05:42:35.264Z,275.63
2019-05-09T05:43:41.482Z,264.38
2019-05-09T05:44:35.312Z,264.38
2019-05-09T05:45:37.388Z,270.00
2019-05-09T05:46:37.802Z,275.63
2019-05-09T05:47:37.810Z,281.25
2019-05-09T05:48:35.645Z,298.13
2019-05-09T05:49:35.380Z,298.13
2019-05-09T05:50:35.336Z,309.38
2019-05-09T05:51:35.360Z,315.00
2019-05-09T05:52:37.397Z,320.63
2019-05-09T05:53:35.381Z,331.88
2019-05-09T05:54:37.669Z,337.50
2019-05-09T05:55:37.797Z,348.75
2019-05-09T05:56:35.405Z,360.00
2019-05-09T05:57:35.438Z,371.25
2019-05-09T05:58:35.453Z,388.13
2019-05-09T05:59:40.458Z,399.38
2019-05-09T06:00:37.635Z,405.00
2019-05-09T06:01:35.458Z,399.38
2019-05-09T06:02:35.472Z,382.50
2019-05-09T06:03:37.621Z,360.00
2019-05-09T06:04:37.918Z,337.50
2019-05-09T06:05:35.491Z,320.63
2019-05-09T06:06:37.358Z,309.38
2019-05-09T06:07:37.653Z,309.38
2019-05-09T06:08:37.893Z,315.00
2019-05-09T06:09:37.715Z,320.63
2019-05-09T06:10:37.684Z,309.38
2019-05-09T06:11:35.548Z,286.88
2019-05-09T06:12:37.883Z,264.38
2019-05-09T06:13:37.820Z,247.50
2019-05-09T06:14:37.622Z,236.25
2019-05-09T06:15:37.732Z,225.00
2019-05-09T06:16:37.715Z,225.00
2019-05-09T06:17:37.761Z,230.63
2019-05-09T06:18:38.290Z,241.88
2019-05-09T06:19:37.894Z,258.75
2019-05-09T06:20:35.651Z,275.63
2019-05-09T06:21:37.493Z,286.88
2019-05-09T06:22:37.972Z,303.75
2019-05-09T06:23:37.417Z,315.00
2019-05-09T06:24:35.656Z,331.88
2019-05-09T06:25:35.673Z,348.75
2019-05-09T06:26:37.326Z,371.25
2019-05-09T06:27:37.573Z,393.75
2019-05-09T06:28:37.632Z,416.25
2019-05-09T06:29:35.699Z,433.13
2019-05-09T06:30:40.900Z,455.63
2019-05-09T06:31:37.616Z,472.50
2019-05-09T06:32:37.827Z,478.13
2019-05-09T06:33:35.800Z,489.38
2019-05-09T06:34:39.629Z,500.63
2019-05-09T06:35:37.954Z,511.88
2019-05-09T06:36:38.990Z,517.50
2019-05-09T06:37:38.125Z,506.25
2019-05-09T06:38:37.723Z,500.63
2019-05-09T06:39:37.771Z,500.63
2019-05-09T06:40:38.176Z,478.13
2019-05-09T06:41:37.814Z,455.63
2019-05-09T06:42:38.089Z,421.88
2019-05-09T06:43:39.205Z,399.38
2019-05-09T06:44:37.438Z,376.88
2019-05-09T06:45:40.870Z,360.00
2019-05-09T06:46:37.827Z,348.75
2019-05-09T06:47:38.016Z,343.13
2019-05-09T06:48:37.794Z,348.75
2019-05-09T06:49:37.685Z,371.25
2019-05-09T06:50:37.854Z,405.00
2019-05-09T06:51:38.548Z,433.13
2019-05-09T06:52:37.544Z,438.75
2019-05-09T06:53:37.838Z,427.50
2019-05-09T06:54:35.952Z,405.00
2019-05-09T06:55:38.337Z,388.13
2019-05-09T06:56:38.021Z,382.50
2019-05-09T06:57:41.915Z,382.50
2019-05-09T06:58:38.110Z,376.88
2019-05-09T06:59:38.019Z,376.88
2019-05-09T07:00:37.940Z,376.88
2019-05-09T07:01:37.569Z,376.88
2019-05-09T07:02:36.049Z,371.25
2019-05-09T07:03:37.516Z,371.25
2019-05-09T07:04:38.085Z,365.63
2019-05-09T07:05:36.046Z,365.63
2019-05-09T07:06:38.063Z,376.88
2019-05-09T07:07:37.400Z,399.38
2019-05-09T07:08:37.933Z,427.50
2019-05-09T07:09:38.324Z,461.25
2019-05-09T07:10:37.743Z,511.88
2019-05-09T07:11:38.108Z,573.75
2019-05-09T07:12:37.974Z,630.00
2019-05-09T07:13:38.081Z,680.63
2019-05-09T07:14:40.949Z,703.13
2019-05-09T07:15:37.634Z,720.00
2019-05-09T07:16:37.660Z,731.25
2019-05-09T07:17:38.545Z,720.00
2019-05-09T07:18:38.142Z,703.13
2019-05-09T07:19:38.257Z,691.88
2019-05-09T07:20:37.855Z,686.25
2019-05-09T07:21:37.589Z,669.38
2019-05-09T07:22:38.927Z,641.25
2019-05-09T07:23:37.297Z,618.75
2019-05-09T07:24:37.794Z,590.63
2019-05-09T07:25:37.768Z,568.13
2019-05-09T07:26:37.338Z,534.38
2019-05-09T07:27:38.834Z,506.25
2019-05-09T07:28:37.652Z,489.38
2019-05-09T07:29:37.590Z,483.75
2019-05-09T07:30:37.566Z,489.38
2019-05-09T07:31:37.931Z,466.88
2019-05-09T07:32:38.221Z,466.88
2019-05-09T07:33:38.358Z,472.50
2019-05-09T07:34:38.236Z,495.00
2019-05-09T07:35:38.244Z,511.88
2019-05-09T07:36:38.388Z,540.00
2019-05-09T07:37:37.973Z,556.88
2019-05-09T07:38:38.473Z,573.75
2019-05-09T07:39:37.985Z,590.63
2019-05-09T07:40:38.506Z,590.63
2019-05-09T07:41:38.434Z,590.63
2019-05-09T07:42:38.875Z,585.00
2019-05-09T07:43:38.498Z,585.00
2019-05-09T07:44:48.050Z,601.88
2019-05-09T07:45:38.415Z,613.13
2019-05-09T07:46:38.415Z,618.75
2019-05-09T07:47:38.545Z,618.75
2019-05-09T07:48:38.054Z,596.25
2019-05-09T07:49:37.744Z,556.88
2019-05-09T07:50:38.859Z,540.00
2019-05-09T07:51:37.377Z,506.25
2019-05-09T07:52:38.708Z,500.63
2019-05-09T07:53:38.097Z,528.75
2019-05-09T07:54:37.743Z,540.00
2019-05-09T07:55:37.863Z,545.63
2019-05-09T07:56:37.854Z,551.25
2019-05-09T07:57:44.844Z,556.88
2019-05-09T07:58:37.721Z,568.13
2019-05-09T07:59:38.754Z,562.50
2019-05-09T08:00:38.540Z,540.00
2019-05-09T08:01:38.462Z,556.88
2019-05-09T08:02:38.677Z,601.88
2019-05-09T08:03:38.507Z,641.25
2019-05-09T08:04:38.559Z,663.75
2019-05-09T08:05:38.507Z,675.00
2019-05-09T08:06:38.020Z,680.63
2019-05-09T08:07:38.136Z,675.00
2019-05-09T08:08:38.399Z,675.00
2019-05-09T08:09:38.818Z,686.25
2019-05-09T08:10:38.557Z,686.25
2019-05-09T08:11:37.635Z,663.75
2019-05-09T08:12:38.939Z,635.63
2019-05-09T08:13:39.192Z,607.50
2019-05-09T08:14:37.742Z,596.25
2019-05-09T08:15:38.391Z,607.50
2019-05-09T08:16:37.949Z,618.75
2019-05-09T08:17:38.104Z,630.00
2019-05-09T08:18:37.580Z,635.63
2019-05-09T08:19:38.069Z,624.38
2019-05-09T08:20:40.445Z,618.75
2019-05-09T08:21:38.297Z,613.13
2019-05-09T08:22:41.111Z,613.13
2019-05-09T08:23:38.002Z,618.75
2019-05-09T08:24:38.058Z,624.38
2019-05-09T08:25:38.205Z,630.00
2019-05-09T08:26:39.311Z,630.00
2019-05-09T08:27:37.937Z,646.88
2019-05-09T08:28:38.988Z,675.00
2019-05-09T08:29:38.752Z,714.38
2019-05-09T08:30:40.141Z,753.75
2019-05-09T08:31:40.018Z,776.25
2019-05-09T08:32:37.693Z,759.38
2019-05-09T08:33:38.088Z,725.63
2019-05-09T08:34:37.827Z,720.00
2019-05-09T08:35:38.340Z,725.63
2019-05-09T08:36:38.489Z,731.25
2019-05-09T08:37:38.992Z,736.88
2019-05-09T08:38:39.028Z,736.88
2019-05-09T08:39:38.305Z,736.88
2019-05-09T08:40:38.142Z,736.88
2019-05-09T08:41:38.505Z,742.50
2019-05-09T08:42:37.803Z,720.00
2019-05-09T08:43:37.698Z,708.75
2019-05-09T08:44:37.913Z,680.63
2019-05-09T08:45:38.332Z,663.75
2019-05-09T08:46:37.704Z,669.38
2019-05-09T08:47:38.075Z,675.00
2019-05-09T08:48:37.828Z,691.88
2019-05-09T08:49:37.511Z,669.38
2019-05-09T08:50:38.891Z,624.38
2019-05-09T08:51:50.695Z,618.75
2019-05-09T08:52:37.724Z,630.00
2019-05-09T08:53:38.073Z,601.88
2019-05-09T08:54:38.001Z,545.63
2019-05-09T08:55:38.292Z,534.38
2019-05-09T08:56:38.737Z,551.25
2019-05-09T08:57:37.616Z,556.88
2019-05-09T08:58:38.186Z,568.13
2019-05-09T08:59:38.322Z,624.38
2019-05-09T09:00:39.082Z,663.75
2019-05-09T09:02:03.837Z,703.13
2019-05-09T09:02:37.764Z,736.88
2019-05-09T09:03:37.822Z,770.63
2019-05-09T09:04:38.367Z,781.88
2019-05-09T09:05:38.104Z,798.75
2019-05-09T09:06:38.008Z,810.00
2019-05-09T09:07:38.056Z,832.50
2019-05-09T09:08:38.098Z,849.38
2019-05-09T09:09:37.995Z,855.00
2019-05-09T09:10:38.469Z,883.13
2019-05-09T09:11:38.540Z,888.75
2019-05-09T09:12:38.433Z,860.63
2019-05-09T09:13:37.938Z,843.75
2019-05-09T09:14:38.458Z,832.50
2019-05-09T09:16:03.018Z,798.75
2019-05-09T09:16:38.049Z,725.63
2019-05-09T09:17:38.505Z,680.63
2019-05-09T09:18:38.795Z,669.38
2019-05-09T09:19:38.576Z,680.63
2019-05-09T09:20:38.099Z,646.88
2019-05-09T09:21:38.815Z,641.25
2019-05-09T09:22:37.797Z,607.50
2019-05-09T09:23:44.185Z,568.13
2019-05-09T09:24:37.663Z,562.50
2019-05-09T09:25:39.146Z,551.25
2019-05-09T09:26:38.192Z,579.38
2019-05-09T09:27:38.191Z,630.00
2019-05-09T09:28:38.101Z,658.13
2019-05-09T09:29:38.112Z,675.00
2019-05-09T09:30:38.641Z,720.00
2019-05-09T09:31:37.898Z,720.00
2019-05-09T09:32:38.784Z,686.25
2019-05-09T09:33:37.867Z,641.25
2019-05-09T09:34:38.022Z,624.38
2019-05-09T09:35:38.393Z,658.13
2019-05-09T09:36:39.049Z,753.75
2019-05-09T09:37:48.551Z,793.13
2019-05-09T09:38:37.732Z,810.00
2019-05-09T09:39:44.375Z,793.13
2019-05-09T09:40:38.571Z,810.00
2019-05-09T09:41:38.837Z,826.88
2019-05-09T09:42:39.612Z,855.00
2019-05-09T09:43:38.489Z,871.88
2019-05-09T09:44:39.324Z,877.50
2019-05-09T09:45:38.103Z,866.25
2019-05-09T09:46:37.834Z,838.13
2019-05-09T09:47:39.936Z,832.50
2019-05-09T09:48:38.914Z,787.50
2019-05-09T09:49:38.341Z,708.75
2019-05-09T09:50:38.463Z,663.75
2019-05-09T09:51:38.323Z,641.25
2019-05-09T09:52:38.505Z,624.38
2019-05-09T09:53:38.668Z,624.38
2019-05-09T09:54:38.656Z,613.13
2019-05-09T09:55:38.562Z,590.63
2019-05-09T09:56:38.778Z,556.88
2019-05-09T09:57:37.993Z,540.00
2019-05-09T09:58:38.117Z,545.63
2019-05-09T09:59:40.809Z,545.63
2019-05-09T10:00:38.266Z,528.75
2019-05-09T10:01:38.548Z,506.25
2019-05-09T10:02:38.067Z,478.13
2019-05-09T10:03:38.055Z,433.13
2019-05-09T10:04:38.070Z,393.75
2019-05-09T10:05:38.181Z,376.88
2019-05-09T10:06:38.956Z,382.50
2019-05-09T10:07:38.508Z,382.50
2019-05-09T10:08:39.697Z,405.00
2019-05-09T10:09:38.112Z,438.75
2019-05-09T10:10:38.139Z,461.25
2019-05-09T10:11:38.181Z,500.63
2019-05-09T10:12:44.284Z,551.25
2019-05-09T10:13:38.219Z,607.50
2019-05-09T10:14:38.232Z,652.50
2019-05-09T10:15:38.458Z,658.13
2019-05-09T10:16:39.011Z,624.38
2019-05-09T10:17:38.760Z,573.75
2019-05-09T10:18:38.322Z,517.50
2019-05-09T10:19:38.458Z,478.13
2019-05-09T10:20:38.580Z,455.63
2019-05-09T10:21:38.325Z,455.63
2019-05-09T10:22:46.709Z,444.38
2019-05-09T10:23:38.339Z,444.38
2019-05-09T10:24:38.320Z,438.75
2019-05-09T10:25:38.456Z,433.13
2019-05-09T10:26:38.998Z,405.00
2019-05-09T10:27:38.791Z,371.25
2019-05-09T10:28:38.344Z,343.13
2019-05-09T10:29:39.005Z,337.50
2019-05-09T10:30:38.516Z,326.25
2019-05-09T10:31:39.209Z,309.38
2019-05-09T10:32:38.529Z,270.00
2019-05-09T10:33:38.430Z,236.25
2019-05-09T10:34:38.415Z,213.75
2019-05-09T10:35:39.140Z,196.88
2019-05-09T10:36:38.542Z,185.63
2019-05-09T10:37:39.445Z,191.25
2019-05-09T10:38:38.838Z,202.50
2019-05-09T10:39:38.473Z,196.88
2019-05-09T10:40:39.888Z,196.88
2019-05-09T10:41:38.510Z,213.75
2019-05-09T10:42:38.549Z,247.50
2019-05-09T10:43:39.120Z,281.25
2019-05-09T10:44:38.857Z,326.25
2019-05-09T10:45:40.804Z,376.88
2019-05-09T10:46:52.029Z,427.50
2019-05-09T10:47:38.565Z,483.75
2019-05-09T10:48:38.705Z,523.13
2019-05-09T10:49:38.596Z,540.00
2019-05-09T10:50:44.259Z,551.25
2019-05-09T10:51:38.587Z,568.13
2019-05-09T10:52:38.599Z,618.75
2019-05-09T10:53:38.623Z,691.88
2019-05-09T10:54:38.632Z,770.63
2019-05-09T10:55:38.795Z,838.13
2019-05-09T10:56:38.703Z,894.38
2019-05-09T10:57:42.495Z,939.38
2019-05-09T10:58:38.694Z,939.38
2019-05-09T10:59:38.690Z,900.00
2019-05-09T11:00:39.621Z,849.38
2019-05-09T11:01:38.724Z,787.50
2019-05-09T11:02:38.716Z,753.75
2019-05-09T11:03:38.734Z,720.00
2019-05-09T11:04:42.127Z,703.13
2019-05-09T11:05:38.746Z,697.50
2019-05-09T11:06:38.796Z,703.13
2019-05-09T11:07:38.804Z,708.75
2019-05-09T11:08:38.837Z,720.00
2019-05-09T11:09:39.100Z,731.25
2019-05-09T11:10:39.867Z,765.00
2019-05-09T11:11:38.941Z,815.63
2019-05-09T11:12:38.864Z,877.50
2019-05-09T11:13:39.139Z,911.25
2019-05-09T11:14:38.876Z,922.50
2019-05-09T11:15:38.887Z,922.50
2019-05-09T11:16:45.914Z,928.13
2019-05-09T11:17:39.074Z,956.25
2019-05-09T11:18:38.939Z,950.63
2019-05-09T11:19:38.955Z,905.63
2019-05-09T11:20:39.006Z,793.13
2019-05-09T11:21:39.372Z,663.75
2019-05-09T11:22:39.024Z,579.38
2019-05-09T11:23:39.380Z,489.38
2019-05-09T11:24:46.118Z,421.88
2019-05-09T11:25:39.051Z,365.63
2019-05-09T11:26:39.903Z,326.25
2019-05-09T11:27:39.042Z,270.00
2019-05-09T11:28:39.449Z,247.50
2019-05-09T11:29:39.071Z,247.50
2019-05-09T11:30:39.076Z,230.63
2019-05-09T11:31:39.085Z,196.88
2019-05-09T11:32:39.111Z,163.13
2019-05-09T11:33:39.150Z,157.50
2019-05-09T11:34:39.117Z,174.38
2019-05-09T11:35:39.121Z,196.88
2019-05-09T11:36:39.253Z,225.00
2019-05-09T11:37:39.185Z,258.75
2019-05-09T11:38:43.641Z,286.88
2019-05-09T11:39:42.206Z,303.75
2019-05-09T11:40:39.205Z,320.63
2019-05-09T11:41:39.203Z,348.75
2019-05-09T11:42:39.254Z,371.25
2019-05-09T11:43:39.350Z,376.88
2019-05-09T11:44:39.228Z,382.50
2019-05-09T11:45:39.342Z,382.50
2019-05-09T11:46:39.282Z,393.75
2019-05-09T11:47:45.896Z,416.25
2019-05-09T11:48:39.315Z,444.38
2019-05-09T11:49:39.354Z,455.63
2019-05-09T11:50:39.307Z,461.25
2019-05-09T11:51:39.315Z,455.63
2019-05-09T11:52:39.350Z,455.63
2019-05-09T11:53:40.179Z,466.88
2019-05-09T11:54:39.359Z,489.38
2019-05-09T11:55:43.083Z,517.50
2019-05-09T11:56:39.369Z,568.13
2019-05-09T11:57:39.369Z,596.25
2019-05-09T11:58:39.442Z,601.88
2019-05-09T11:59:39.399Z,596.25
2019-05-09T12:00:39.423Z,601.88
2019-05-09T12:01:39.894Z,613.13
2019-05-09T12:02:39.491Z,635.63
2019-05-09T12:03:39.475Z,658.13
2019-05-09T12:04:39.486Z,686.25
2019-05-09T12:05:39.480Z,697.50
2019-05-09T12:06:39.492Z,714.38
2019-05-09T12:07:39.559Z,708.75
2019-05-09T12:08:39.544Z,720.00
2019-05-09T12:09:39.602Z,736.88
2019-05-09T12:10:39.558Z,804.38
2019-05-09T12:11:44.187Z,871.88
2019-05-09T12:12:39.573Z,905.63
2019-05-09T12:13:39.573Z,922.50
2019-05-09T12:14:39.590Z,900.00
2019-05-09T12:15:39.696Z,860.63
2019-05-09T12:16:39.616Z,804.38
2019-05-09T12:17:53.101Z,759.38
2019-05-09T12:18:39.661Z,736.88
2019-05-09T12:19:39.651Z,731.25
2019-05-09T12:20:39.737Z,736.88
2019-05-09T12:21:47.425Z,748.13
2019-05-09T12:22:39.677Z,776.25
2019-05-09T12:23:39.721Z,810.00
2019-05-09T12:24:39.708Z,843.75
2019-05-09T12:25:39.780Z,860.63
2019-05-09T12:26:39.746Z,849.38
2019-05-09T12:27:39.731Z,815.63
2019-05-09T12:28:39.794Z,776.25
2019-05-09T12:29:39.765Z,765.00
2019-05-09T12:30:39.770Z,753.75
2019-05-09T12:31:39.805Z,748.13
2019-05-09T12:32:39.794Z,731.25
2019-05-09T12:33:39.827Z,697.50
2019-05-09T12:34:39.833Z,646.88
2019-05-09T12:35:39.831Z,596.25
2019-05-09T12:36:40.127Z,551.25
2019-05-09T12:37:39.870Z,511.88
2019-05-09T12:38:39.880Z,483.75
2019-05-09T12:39:39.893Z,461.25
2019-05-09T12:40:39.889Z,450.00
2019-05-09T12:41:39.909Z,433.13
2019-05-09T12:42:39.967Z,421.88
2019-05-09T12:43:39.981Z,416.25